Time;durP1;ratioP1;P1;durP2;ratioP2;P2;SDS_P1;SDS_P2;PMS_P1;PMS_P2;Temp;Humidity;BMP_temperature;BMP_pressure;BME280_temperature;BME280_humidity;BME280_pressure;Samples;Min_cycle;Max_cycle;Signal;HPM_P1;HPM_P2
2022/02/14 00:02:21;;;;;;;3.57;0.90;;;11.30;99.90;;;;;;4976223;28;20239;-75
2022/02/14 00:04:47;;;;;;;2.47;1.00;;;11.30;99.90;;;;;;4976800;28;20210;-70
2022/02/14 00:07:14;;;;;;;1.47;0.87;;;11.20;99.90;;;;;;4976298;28;20210;-71
2022/02/14 00:09:41;;;;;;;3.90;0.73;;;11.20;99.90;;;;;;4976673;28;20210;-70
2022/02/14 00:12:08;;;;;;;2.53;0.90;;;11.20;99.90;;;;;;4976248;28;20694;-75
2022/02/14 00:14:35;;;;;;;3.10;0.73;;;11.10;99.90;;;;;;4975998;28;20199;-73
2022/02/14 00:17:03;;;;;;;1.83;0.90;;;11.20;99.90;;;;;;4976114;28;20207;-74
2022/02/14 00:19:30;;;;;;;3.13;0.90;;;11.10;99.90;;;;;;4976373;28;20218;-75
2022/02/14 00:21:57;;;;;;;3.37;1.30;;;11.00;99.90;;;;;;4976014;28;20227;-74
2022/02/14 00:24:24;;;;;;;1.50;0.70;;;11.00;99.90;;;;;;4976626;28;20207;-76
2022/02/14 00:26:53;;;;;;;8.03;0.90;;;11.00;99.90;;;;;;4976569;28;20218;-73
2022/02/14 00:29:20;;;;;;;4.67;1.17;;;11.10;99.90;;;;;;4976471;28;20203;-69
2022/02/14 00:31:47;;;;;;;2.93;1.03;;;11.10;99.90;;;;;;4975899;28;20233;-70
2022/02/14 00:34:16;;;;;;;2.07;0.70;;;11.20;99.90;;;;;;4975817;28;20214;-75
2022/02/14 00:36:43;;;;;;;3.50;1.00;;;11.20;99.90;;;;;;4976202;28;20215;-76
2022/02/14 00:39:10;;;;;;;7.30;1.57;;;11.20;99.90;;;;;;4976176;28;20223;-72
2022/02/14 00:41:37;;;;;;;0.97;0.70;;;11.30;99.90;;;;;;4976064;28;20237;-72
2022/02/14 00:44:04;;;;;;;1.63;0.70;;;11.30;99.90;;;;;;4976076;28;20203;-73
2022/02/14 00:46:31;;;;;;;1.50;0.83;;;11.30;99.90;;;;;;4976071;28;20211;-74
2022/02/14 00:48:58;;;;;;;2.67;0.60;;;11.30;99.90;;;;;;4975519;28;20214;-76
2022/02/14 00:51:26;;;;;;;4.77;0.80;;;11.30;99.90;;;;;;4975700;28;20232;-70
2022/02/14 00:53:53;;;;;;;4.50;0.90;;;11.20;99.90;;;;;;4976251;28;20207;-75
2022/02/14 00:56:19;;;;;;;2.53;0.70;;;11.30;99.90;;;;;;4976158;28;20217;-73
2022/02/14 00:58:46;;;;;;;1.60;0.77;;;11.30;99.90;;;;;;4975738;28;20689;-76
2022/02/14 01:01:13;;;;;;;2.53;0.80;;;11.30;99.90;;;;;;4975689;28;20233;-74
2022/02/14 01:03:40;;;;;;;2.57;0.97;;;11.30;99.90;;;;;;4975057;28;20254;-70
2022/02/14 01:06:07;;;;;;;2.50;0.70;;;11.30;99.90;;;;;;4975476;28;20218;-70
2022/02/14 01:08:35;;;;;;;2.47;0.67;;;11.30;99.90;;;;;;4975300;28;20224;-69
2022/02/14 01:11:02;;;;;;;1.27;0.50;;;11.30;99.90;;;;;;4975531;28;20585;-69
2022/02/14 01:13:29;;;;;;;2.50;0.97;;;11.30;99.90;;;;;;4975214;28;20215;-70
2022/02/14 01:15:56;;;;;;;4.20;0.70;;;11.20;99.90;;;;;;4975457;28;20215;-75
2022/02/14 01:18:23;;;;;;;5.13;1.13;;;11.30;99.90;;;;;;4975530;28;20302;-74
2022/02/14 01:20:51;;;;;;;3.23;0.87;;;11.20;99.90;;;;;;4975125;28;20223;-75
2022/02/14 01:23:17;;;;;;;1.10;0.80;;;11.20;99.90;;;;;;4975600;28;20234;-76
2022/02/14 01:25:46;;;;;;;1.73;0.70;;;11.20;99.90;;;;;;4975592;28;20207;-76
2022/02/14 01:28:12;;;;;;;2.37;0.57;;;11.20;99.90;;;;;;4975222;28;20203;-74
2022/02/14 01:30:39;;;;;;;1.13;0.60;;;11.30;99.90;;;;;;4974385;28;20207;-75
2022/02/14 01:33:06;;;;;;;4.23;1.93;;;11.20;99.90;;;;;;4975575;28;20211;-76
2022/02/14 01:35:33;;;;;;;3.07;0.70;;;11.20;99.90;;;;;;4975043;28;20753;-74
2022/02/14 01:38:00;;;;;;;1.47;0.60;;;11.30;99.90;;;;;;4975377;28;20211;-70
2022/02/14 01:40:27;;;;;;;1.83;0.90;;;11.30;99.90;;;;;;4975159;28;20574;-72
2022/02/14 01:42:55;;;;;;;1.67;0.50;;;11.40;99.90;;;;;;4975124;28;20230;-75
2022/02/14 01:45:21;;;;;;;1.87;0.90;;;11.30;99.90;;;;;;4974892;28;20217;-76
2022/02/14 01:47:48;;;;;;;1.47;0.70;;;11.30;99.90;;;;;;4974465;28;20199;-74
2022/02/14 01:50:16;;;;;;;2.77;0.60;;;11.30;99.90;;;;;;4974871;28;20207;-74
2022/02/14 01:52:44;;;;;;;5.40;1.00;;;11.20;99.90;;;;;;4974871;28;20227;-76
2022/02/14 01:55:13;;;;;;;4.77;0.87;;;11.20;99.90;;;;;;4974851;28;20226;-72
2022/02/14 01:57:40;;;;;;;3.40;0.77;;;11.20;99.90;;;;;;4974825;28;20215;-72
2022/02/14 02:00:11;;;;;;;2.50;0.63;;;11.20;99.90;;;;;;4974809;28;20206;-72
2022/02/14 02:02:38;;;;;;;0.93;0.80;;;11.10;99.90;;;;;;4974599;28;20239;-76
2022/02/14 02:05:06;;;;;;;4.83;0.80;;;11.10;99.90;;;;;;4973702;28;20199;-71
2022/02/14 02:07:33;;;;;;;1.23;0.60;;;11.20;99.90;;;;;;4974476;28;20290;-76
2022/02/14 02:10:00;;;;;;;1.27;0.50;;;11.10;99.90;;;;;;4974770;28;20211;-77
2022/02/14 02:12:26;;;;;;;0.97;0.70;;;11.10;99.90;;;;;;4974663;28;20590;-76
2022/02/14 02:14:54;;;;;;;1.20;0.73;;;11.10;99.90;;;;;;4974679;28;20203;-75
2022/02/14 02:17:24;;;;;;;6.67;0.77;;;11.10;99.90;;;;;;4974676;28;20266;-71
2022/02/14 02:19:51;;;;;;;4.97;0.80;;;11.20;99.90;;;;;;4974566;28;20207;-71
2022/02/14 02:22:18;;;;;;;1.00;0.57;;;11.20;99.90;;;;;;4974217;28;20705;-75
2022/02/14 02:24:49;;;;;;;2.33;0.83;;;11.20;99.90;;;;;;4973767;28;20622;-74
2022/02/14 02:27:16;;;;;;;2.93;1.17;;;11.10;99.90;;;;;;4974220;28;20335;-72
2022/02/14 02:29:44;;;;;;;3.27;0.97;;;11.20;99.90;;;;;;4973525;28;20203;-70
2022/02/14 02:32:13;;;;;;;2.67;0.50;;;11.20;99.90;;;;;;4973410;28;20234;-75
2022/02/14 02:34:41;;;;;;;1.07;0.60;;;11.20;99.90;;;;;;4974150;28;20218;-70
2022/02/14 02:37:10;;;;;;;2.20;0.90;;;11.30;99.90;;;;;;4974198;28;20570;-73
2022/02/14 02:39:37;;;;;;;1.30;0.70;;;11.20;99.90;;;;;;4974398;28;20213;-76
2022/02/14 02:42:07;;;;;;;0.90;0.70;;;11.20;99.90;;;;;;4974070;28;20720;-76
2022/02/14 02:44:35;;;;;;;1.23;0.60;;;11.20;99.90;;;;;;4974109;28;20571;-70
2022/02/14 02:47:04;;;;;;;0.70;0.50;;;11.20;99.90;;;;;;4974068;28;20211;-70
2022/02/14 02:49:31;;;;;;;1.50;0.57;;;11.20;99.90;;;;;;4973539;28;20211;-70
2022/02/14 02:51:58;;;;;;;2.07;0.60;;;11.20;99.90;;;;;;4974180;28;20223;-76
2022/02/14 02:54:26;;;;;;;3.50;0.63;;;11.20;99.90;;;;;;4974275;28;20211;-74
2022/02/14 02:56:54;;;;;;;1.50;0.60;;;11.20;99.90;;;;;;4974286;28;20213;-74
2022/02/14 02:59:25;;;;;;;3.13;0.63;;;11.20;99.90;;;;;;4974008;28;20203;-74
2022/02/14 03:01:52;;;;;;;1.33;0.90;;;11.10;99.90;;;;;;4974109;28;20317;-73
2022/02/14 03:04:19;;;;;;;0.80;0.70;;;11.10;99.90;;;;;;4973329;28;20234;-76
2022/02/14 03:06:46;;;;;;;1.50;0.80;;;11.10;99.90;;;;;;4973631;28;20211;-70
2022/02/14 03:09:15;;;;;;;1.20;0.60;;;11.10;99.90;;;;;;4973893;28;20303;-70
2022/02/14 03:11:43;;;;;;;1.60;0.50;;;11.10;99.90;;;;;;4973707;28;20227;-75
2022/02/14 03:14:10;;;;;;;1.27;0.50;;;11.00;99.90;;;;;;4974067;28;20211;-73
2022/02/14 03:16:39;;;;;;;1.33;0.70;;;11.00;99.90;;;;;;4973880;28;20210;-76
2022/02/14 03:19:06;;;;;;;1.00;0.50;;;11.00;99.90;;;;;;4973494;28;20207;-74
2022/02/14 03:21:33;;;;;;;2.73;0.70;;;11.00;99.90;;;;;;4973879;28;20234;-73
2022/02/14 03:24:00;;;;;;;0.87;0.50;;;11.00;99.90;;;;;;4973830;28;20781;-71
2022/02/14 03:26:27;;;;;;;2.70;0.50;;;11.00;99.90;;;;;;4973975;28;20218;-71
2022/02/14 03:28:55;;;;;;;1.50;0.60;;;11.00;99.90;;;;;;4973810;28;20210;-76
2022/02/14 03:31:23;;;;;;;3.47;0.83;;;11.00;99.90;;;;;;4973832;28;20231;-73
2022/02/14 03:33:51;;;;;;;2.50;0.70;;;11.00;99.90;;;;;;4973952;28;20207;-74
2022/02/14 03:36:20;;;;;;;2.67;0.63;;;11.00;99.90;;;;;;4975973;28;20566;-70
2022/02/14 03:38:47;;;;;;;2.90;0.67;;;11.00;99.90;;;;;;4977337;28;20706;-70
2022/02/14 03:41:15;;;;;;;1.37;0.70;;;11.00;99.90;;;;;;4977235;28;20238;-73
2022/02/14 03:43:41;;;;;;;1.10;0.63;;;11.00;99.90;;;;;;4977107;28;20602;-72
2022/02/14 03:46:09;;;;;;;2.37;0.80;;;11.10;99.90;;;;;;4977114;28;20210;-70
2022/02/14 03:48:35;;;;;;;0.47;0.40;;;11.00;99.90;;;;;;4977175;28;20218;-75
2022/02/14 03:51:04;;;;;;;0.73;0.40;;;11.00;99.90;;;;;;4977094;28;20231;-76
2022/02/14 03:53:31;;;;;;;0.80;0.70;;;11.10;99.90;;;;;;4976551;28;20234;-75
2022/02/14 03:55:58;;;;;;;1.40;0.73;;;11.00;99.90;;;;;;4976958;28;20208;-76
2022/02/14 03:58:25;;;;;;;0.77;0.50;;;11.10;99.90;;;;;;4977276;28;20213;-72
2022/02/14 04:00:52;;;;;;;1.47;0.50;;;11.10;99.90;;;;;;4976638;28;20242;-70
2022/02/14 04:03:19;;;;;;;3.00;0.70;;;11.10;99.90;;;;;;4976596;28;20709;-70
2022/02/14 04:05:46;;;;;;;1.20;0.70;;;11.10;99.90;;;;;;4976052;28;20195;-71
2022/02/14 04:08:14;;;;;;;1.20;0.50;;;11.10;99.90;;;;;;4976695;28;20214;-74
2022/02/14 04:10:41;;;;;;;1.50;0.70;;;11.10;99.90;;;;;;4976446;28;20222;-72
2022/02/14 04:13:09;;;;;;;1.47;0.50;;;11.10;99.90;;;;;;4976799;28;20211;-73
2022/02/14 04:15:36;;;;;;;0.80;0.80;;;11.10;99.90;;;;;;4977052;28;20211;-75
2022/02/14 04:18:03;;;;;;;4.23;1.20;;;11.10;99.90;;;;;;4976205;28;20208;-77
2022/02/14 04:20:29;;;;;;;0.77;0.50;;;11.10;99.90;;;;;;4976656;28;20211;-77
2022/02/14 04:22:56;;;;;;;1.90;0.70;;;11.10;99.90;;;;;;4976428;28;20211;-75
2022/02/14 04:25:25;;;;;;;2.50;0.70;;;11.00;99.90;;;;;;4976697;28;20212;-75
2022/02/14 04:27:51;;;;;;;1.23;0.60;;;11.00;99.90;;;;;;4976598;28;20208;-70
2022/02/14 04:30:18;;;;;;;1.10;0.53;;;11.10;99.90;;;;;;4976305;28;20209;-76
2022/02/14 04:32:45;;;;;;;1.10;0.70;;;11.10;99.90;;;;;;4976254;28;20230;-72
2022/02/14 04:35:12;;;;;;;1.90;0.50;;;11.00;99.90;;;;;;4976059;28;20215;-70
2022/02/14 04:37:39;;;;;;;4.17;0.63;;;11.00;99.90;;;;;;4976220;28;20203;-74
2022/02/14 04:40:07;;;;;;;0.93;0.60;;;11.00;99.90;;;;;;4976109;28;20211;-70
2022/02/14 04:42:35;;;;;;;2.40;0.90;;;11.00;99.90;;;;;;4975880;28;20231;-72
2022/02/14 04:45:02;;;;;;;1.00;0.50;;;11.00;99.90;;;;;;4956670;28;20235;-76
2022/02/14 04:47:29;;;;;;;1.07;0.70;;;11.00;99.90;;;;;;4956087;28;20616;-76
2022/02/14 04:49:56;;;;;;;1.03;0.50;;;11.00;99.90;;;;;;4956865;28;20215;-71
2022/02/14 04:52:23;;;;;;;2.87;0.70;;;11.00;99.90;;;;;;4956405;28;20717;-76
2022/02/14 04:54:50;;;;;;;1.93;0.60;;;11.00;99.90;;;;;;4956706;28;20226;-75
2022/02/14 04:57:17;;;;;;;2.13;0.80;;;11.10;99.90;;;;;;4956725;28;20303;-71
2022/02/14 04:59:45;;;;;;;1.83;0.47;;;11.10;99.90;;;;;;4956750;28;20212;-74
2022/02/14 05:02:12;;;;;;;3.47;0.63;;;11.10;99.90;;;;;;4956687;28;20236;-71
2022/02/14 05:04:39;;;;;;;3.10;0.60;;;11.10;99.90;;;;;;4956676;28;20239;-73
2022/02/14 05:07:06;;;;;;;1.63;0.60;;;11.10;99.90;;;;;;4956452;28;20302;-72
2022/02/14 05:09:32;;;;;;;1.43;0.80;;;11.10;99.90;;;;;;4956626;28;20231;-71
2022/02/14 05:11:59;;;;;;;1.87;0.67;;;11.20;99.90;;;;;;4956612;28;20319;-75
2022/02/14 05:14:26;;;;;;;2.33;0.53;;;11.10;99.90;;;;;;4965716;28;20349;-71
2022/02/14 05:16:54;;;;;;;6.53;0.70;;;11.20;99.90;;;;;;4975005;28;20199;-74
2022/02/14 05:19:21;;;;;;;1.23;0.50;;;11.20;99.90;;;;;;4975241;28;20204;-71
2022/02/14 05:21:48;;;;;;;1.90;0.70;;;11.20;99.90;;;;;;4975271;28;20231;-75
2022/02/14 05:24:15;;;;;;;2.23;0.60;;;11.20;99.90;;;;;;4975227;28;20594;-77
2022/02/14 05:26:42;;;;;;;1.70;0.57;;;11.20;99.90;;;;;;4975341;28;20587;-72
2022/02/14 05:29:09;;;;;;;4.13;0.60;;;11.20;99.90;;;;;;4975467;28;20210;-74
2022/02/14 05:31:35;;;;;;;1.17;0.80;;;11.20;99.90;;;;;;4975171;28;20234;-75
2022/02/14 05:34:03;;;;;;;2.03;0.90;;;11.20;99.90;;;;;;4974973;28;20689;-71
2022/02/14 05:36:31;;;;;;;1.17;0.60;;;11.20;99.90;;;;;;4974610;28;20673;-75
2022/02/14 05:38:57;;;;;;;4.13;0.50;;;11.20;99.90;;;;;;4955775;29;20212;-71
2022/02/14 05:41:24;;;;;;;1.57;0.87;;;11.20;99.90;;;;;;4955795;28;20228;-72
2022/02/14 05:43:51;;;;;;;1.10;0.70;;;11.20;99.90;;;;;;4955770;28;20239;-69
2022/02/14 05:46:18;;;;;;;1.50;1.07;;;11.30;99.90;;;;;;4955579;28;20216;-73
2022/02/14 05:48:46;;;;;;;2.20;0.70;;;11.20;99.90;;;;;;4955519;29;20204;-77
2022/02/14 05:51:16;;;;;;;0.87;0.50;;;11.20;99.90;;;;;;4955720;28;20232;-71
2022/02/14 05:53:45;;;;;;;0.77;0.53;;;11.20;99.90;;;;;;4959332;28;20216;-71
2022/02/14 05:56:11;;;;;;;0.70;0.40;;;11.10;99.90;;;;;;4974761;28;20211;-74
2022/02/14 05:58:38;;;;;;;2.00;0.63;;;11.10;99.90;;;;;;4973953;28;20242;-73
2022/02/14 06:01:05;;;;;;;3.47;0.67;;;11.10;99.90;;;;;;4974477;28;20227;-76
2022/02/14 06:03:32;;;;;;;0.77;0.50;;;11.10;99.90;;;;;;4974804;28;20207;-71
2022/02/14 06:05:59;;;;;;;0.80;0.60;;;11.10;99.90;;;;;;4974664;28;20662;-75
2022/02/14 06:08:27;;;;;;;0.70;0.50;;;11.10;99.90;;;;;;4974932;28;20210;-77
2022/02/14 06:10:54;;;;;;;1.70;0.70;;;11.10;99.90;;;;;;4974414;28;20241;-76
2022/02/14 06:13:21;;;;;;;3.57;0.90;;;11.00;99.90;;;;;;4974462;28;20203;-76
2022/02/14 06:15:48;;;;;;;3.37;0.60;;;11.00;99.90;;;;;;4974048;28;20207;-70
2022/02/14 06:18:15;;;;;;;3.23;0.73;;;11.00;99.90;;;;;;4973971;28;20209;-75
2022/02/14 06:20:42;;;;;;;2.03;0.57;;;11.00;99.90;;;;;;4974331;28;20214;-75
2022/02/14 06:23:09;;;;;;;1.20;0.30;;;11.00;99.90;;;;;;4974299;28;20218;-73
2022/02/14 06:25:38;;;;;;;1.23;0.60;;;10.90;99.90;;;;;;4974292;28;20245;-74
2022/02/14 06:28:05;;;;;;;0.90;0.60;;;10.90;99.90;;;;;;4974015;28;20207;-73
2022/02/14 06:30:32;;;;;;;0.90;0.50;;;10.90;99.90;;;;;;4973958;28;20215;-69
2022/02/14 06:32:59;;;;;;;1.90;0.77;;;10.90;99.90;;;;;;4974267;28;20207;-73
2022/02/14 06:35:26;;;;;;;2.43;0.60;;;10.70;99.90;;;;;;4974036;28;20223;-69
2022/02/14 06:37:52;;;;;;;1.13;0.77;;;10.40;99.90;;;;;;4974280;28;20207;-74
2022/02/14 06:40:19;;;;;;;1.47;0.70;;;10.30;99.90;;;;;;4974284;28;20207;-76
2022/02/14 06:42:50;;;;;;;2.27;1.10;;;10.20;99.90;;;;;;4974102;28;20724;-69
2022/02/14 06:45:17;;;;;;;1.97;0.87;;;10.20;99.90;;;;;;4973913;28;20257;-69
2022/02/14 06:47:44;;;;;;;3.63;1.30;;;10.10;99.90;;;;;;4974275;28;20203;-76
2022/02/14 06:50:11;;;;;;;1.10;0.60;;;9.90;99.90;;;;;;4973600;28;20199;-74
2022/02/14 06:52:39;;;;;;;3.70;0.90;;;9.80;99.90;;;;;;4973530;28;20227;-73
2022/02/14 06:55:07;;;;;;;1.07;0.60;;;9.80;99.90;;;;;;4973588;28;20733;-74
2022/02/14 06:57:36;;;;;;;1.53;0.70;;;9.70;99.90;;;;;;4973835;28;20666;-76
2022/02/14 07:00:08;;;;;;;1.87;0.70;;;9.70;99.90;;;;;;4973796;28;20211;-75
2022/02/14 07:02:35;;;;;;;2.50;0.67;;;9.70;99.90;;;;;;4974077;28;20238;-70
2022/02/14 07:05:02;;;;;;;1.10;0.40;;;9.60;99.90;;;;;;4974088;28;20601;-72
2022/02/14 07:07:30;;;;;;;1.20;0.43;;;9.50;99.90;;;;;;4973981;28;20242;-76
2022/02/14 07:09:57;;;;;;;0.67;0.50;;;9.30;99.90;;;;;;4968468;28;20200;-75
2022/02/14 07:12:24;;;;;;;5.93;0.47;;;9.30;99.90;;;;;;4985848;28;20224;-74
2022/02/14 07:14:50;;;;;;;5.27;0.50;;;9.30;99.90;;;;;;4986783;28;20212;-74
2022/02/14 07:17:18;;;;;;;0.90;0.50;;;9.30;99.90;;;;;;4975902;28;20199;-70
2022/02/14 07:19:45;;;;;;;2.10;0.50;;;9.30;99.90;;;;;;4974590;28;20207;-73
2022/02/14 07:22:12;;;;;;;0.60;0.50;;;9.20;99.90;;;;;;4976399;28;20235;-73
2022/02/14 07:24:39;;;;;;;2.40;0.30;;;9.30;99.90;;;;;;4976659;28;20238;-71
2022/02/14 07:27:05;;;;;;;0.60;0.40;;;9.30;99.90;;;;;;4976622;28;20725;-70
2022/02/14 07:29:32;;;;;;;2.03;0.47;;;9.30;99.90;;;;;;4976861;28;20232;-70
2022/02/14 07:32:00;;;;;;;1.57;0.47;;;9.20;99.90;;;;;;4976468;28;20223;-73
2022/02/14 07:34:28;;;;;;;0.70;0.30;;;9.20;99.90;;;;;;4975965;28;20211;-74
2022/02/14 07:36:55;;;;;;;1.07;0.60;;;9.20;99.90;;;;;;4975792;28;20216;-70
2022/02/14 07:39:21;;;;;;;0.60;0.40;;;9.20;99.90;;;;;;4976830;28;20258;-70
2022/02/14 07:41:50;;;;;;;2.10;0.43;;;9.10;99.90;;;;;;4976869;28;20234;-74
2022/02/14 07:44:17;;;;;;;0.60;0.30;;;9.00;99.90;;;;;;4976903;28;20263;-70
2022/02/14 07:46:44;;;;;;;0.40;0.30;;;9.00;99.90;;;;;;4976522;28;20764;-74
2022/02/14 07:49:11;;;;;;;4.03;0.40;;;9.00;99.90;;;;;;4975587;28;20211;-72
2022/02/14 07:51:39;;;;;;;0.70;0.40;;;9.00;99.90;;;;;;4976557;28;20233;-70
2022/02/14 07:54:06;;;;;;;0.80;0.37;;;9.00;99.90;;;;;;4976554;28;20572;-74
2022/02/14 07:56:33;;;;;;;1.93;0.60;;;9.10;99.90;;;;;;4976849;28;20235;-73
2022/02/14 07:58:59;;;;;;;0.70;0.50;;;9.00;99.90;;;;;;4976721;28;20214;-70
2022/02/14 08:01:26;;;;;;;0.90;0.40;;;9.10;99.90;;;;;;4976269;28;20227;-74
2022/02/14 08:03:53;;;;;;;1.07;0.40;;;9.00;99.90;;;;;;4976686;28;20209;-70
2022/02/14 08:06:20;;;;;;;0.60;0.20;;;9.10;99.90;;;;;;4976433;28;20215;-71
2022/02/14 08:08:48;;;;;;;0.60;0.40;;;9.10;99.90;;;;;;4976455;28;20215;-73
2022/02/14 08:11:15;;;;;;;0.60;0.20;;;9.20;99.90;;;;;;4975564;28;20219;-73
2022/02/14 08:13:41;;;;;;;0.40;0.20;;;9.10;99.90;;;;;;4976217;28;20674;-70
2022/02/14 08:16:08;;;;;;;1.33;0.57;;;9.10;99.90;;;;;;4976179;28;20654;-69
2022/02/14 08:18:36;;;;;;;0.70;0.20;;;9.10;99.90;;;;;;4976327;28;20238;-74
2022/02/14 08:21:03;;;;;;;0.30;0.23;;;9.30;99.90;;;;;;4975728;28;20231;-74
2022/02/14 08:23:30;;;;;;;0.40;0.17;;;9.30;99.90;;;;;;4975487;28;20211;-70
2022/02/14 08:25:58;;;;;;;0.30;0.20;;;9.40;99.90;;;;;;4975985;28;20242;-70
2022/02/14 08:28:25;;;;;;;0.40;0.30;;;9.40;99.90;;;;;;4975982;28;20208;-73
2022/02/14 08:30:52;;;;;;;0.93;0.30;;;9.40;99.90;;;;;;4975823;28;20725;-74
2022/02/14 08:33:19;;;;;;;3.20;0.20;;;9.30;99.90;;;;;;4975809;28;20211;-73
2022/02/14 08:35:46;;;;;;;1.90;0.30;;;9.30;99.90;;;;;;4975603;28;20678;-73
2022/02/14 08:38:13;;;;;;;0.90;0.20;;;9.30;99.90;;;;;;4975640;28;20211;-70
2022/02/14 08:40:40;;;;;;;0.30;0.10;;;9.30;99.90;;;;;;4975881;28;20218;-73
2022/02/14 08:43:08;;;;;;;0.20;0.20;;;9.20;99.90;;;;;;4973136;28;20206;-70
2022/02/14 08:45:35;;;;;;;1.07;0.23;;;9.20;99.90;;;;;;4966415;28;20226;-70
2022/02/14 08:48:02;;;;;;;0.50;0.20;;;9.10;99.90;;;;;;4975916;28;20613;-69
2022/02/14 08:50:29;;;;;;;1.27;0.33;;;9.10;99.90;;;;;;4975777;28;20562;-74
2022/02/14 08:52:56;;;;;;;0.37;0.23;;;9.10;99.90;;;;;;4975654;28;20678;-75
2022/02/14 08:55:23;;;;;;;2.83;0.40;;;9.00;99.90;;;;;;4975581;28;20211;-70
2022/02/14 08:57:50;;;;;;;0.60;0.30;;;9.00;99.90;;;;;;4975813;28;20203;-74
2022/02/14 09:00:18;;;;;;;1.13;0.30;;;9.10;99.90;;;;;;4975605;28;20211;-70
2022/02/14 09:02:45;;;;;;;0.50;0.30;;;9.10;99.90;;;;;;4962729;28;20224;-74
2022/02/14 09:05:12;;;;;;;1.60;0.40;;;9.20;99.90;;;;;;4955971;29;20806;-70
2022/02/14 09:07:39;;;;;;;0.30;0.10;;;9.30;99.90;;;;;;4956186;29;20212;-70
2022/02/14 09:10:06;;;;;;;0.90;0.50;;;9.30;99.90;;;;;;4973223;28;20222;-70
2022/02/14 09:12:33;;;;;;;0.43;0.30;;;9.40;99.90;;;;;;4974896;28;20242;-70
2022/02/14 09:15:01;;;;;;;0.60;0.20;;;9.60;99.90;;;;;;4975034;28;20212;-70
2022/02/14 09:17:29;;;;;;;2.40;0.30;;;9.70;99.90;;;;;;4975478;28;20204;-70
2022/02/14 09:19:56;;;;;;;1.53;0.30;;;9.80;99.90;;;;;;4971737;28;20199;-70
2022/02/14 09:22:22;;;;;;;0.90;0.40;;;9.80;99.90;;;;;;4974517;28;20235;-72
2022/02/14 09:24:49;;;;;;;0.53;0.30;;;9.90;99.90;;;;;;4975870;28;20227;-71
2022/02/14 09:27:16;;;;;;;0.43;0.30;;;10.00;99.90;;;;;;4982598;28;20199;-72
2022/02/14 09:29:43;;;;;;;0.60;0.30;;;9.90;99.90;;;;;;4980861;28;20667;-74
2022/02/14 09:32:10;;;;;;;3.13;0.30;;;9.90;99.90;;;;;;4976610;28;20227;-76
2022/02/14 09:34:38;;;;;;;2.37;0.60;;;9.90;99.90;;;;;;4976427;28;20263;-76
2022/02/14 09:37:06;;;;;;;1.23;0.30;;;9.80;99.90;;;;;;4976339;28;20218;-74
2022/02/14 09:39:32;;;;;;;1.30;0.53;;;10.10;99.90;;;;;;4971098;28;20207;-76
2022/02/14 09:42:00;;;;;;;2.53;0.70;;;10.10;99.90;;;;;;4974769;28;20223;-75
2022/02/14 09:44:28;;;;;;;1.73;0.47;;;10.00;99.90;;;;;;4974422;28;20211;-72
2022/02/14 09:46:56;;;;;;;1.03;0.70;;;10.00;99.90;;;;;;4974494;28;20207;-75
2022/02/14 09:49:23;;;;;;;2.23;0.60;;;10.10;99.90;;;;;;4973477;28;20212;-75
2022/02/14 09:51:54;;;;;;;2.20;0.33;;;10.30;99.90;;;;;;4973929;28;20237;-74
2022/02/14 09:54:21;;;;;;;1.00;0.50;;;10.40;99.90;;;;;;4974551;28;20204;-70
2022/02/14 09:56:48;;;;;;;2.23;0.47;;;10.40;99.90;;;;;;4973865;28;20261;-77
2022/02/14 09:59:15;;;;;;;1.40;0.60;;;10.40;99.90;;;;;;4973977;28;20204;-73
2022/02/14 10:01:42;;;;;;;2.20;0.80;;;10.50;99.90;;;;;;4973980;28;20235;-83
2022/02/14 10:04:09;;;;;;;1.40;0.60;;;10.50;99.90;;;;;;4970990;28;20693;-68
2022/02/14 10:06:38;;;;;;;1.07;0.50;;;10.50;99.90;;;;;;4990758;28;20234;-68
2022/02/14 10:09:12;;;;;;;0.97;0.50;;;10.50;99.90;;;;;;4975126;28;20290;-69
2022/02/14 10:11:56;;;;;;;3.70;0.40;;;10.70;99.90;;;;;;4972236;28;20253;-69
2022/02/14 10:14:23;;;;;;;2.67;0.53;;;10.70;99.90;;;;;;4972393;28;20655;-70
2022/02/14 10:17:05;;;;;;;0.87;0.40;;;10.60;99.90;;;;;;4972393;28;20219;-69
2022/02/14 10:19:34;;;;;;;2.03;0.70;;;10.60;99.90;;;;;;4971896;28;20210;-75
2022/02/14 10:22:01;;;;;;;0.97;0.43;;;10.60;99.90;;;;;;4972713;28;20227;-69
2022/02/14 10:24:37;;;;;;;3.60;0.50;;;10.70;99.90;;;;;;4972229;28;20203;-70
2022/02/14 10:27:06;;;;;;;1.87;0.40;;;10.70;99.90;;;;;;4969334;28;20267;-70
2022/02/14 10:29:33;;;;;;;2.97;0.60;;;10.80;99.90;;;;;;4961794;28;20207;-71
2022/02/14 10:32:01;;;;;;;1.37;0.73;;;10.70;99.90;;;;;;4972225;28;20222;-76
2022/02/14 10:34:34;;;;;;;1.97;0.30;;;10.60;99.90;;;;;;4971788;28;20222;-75
2022/02/14 10:37:02;;;;;;;1.30;0.37;;;10.50;99.90;;;;;;4972076;28;20214;-76
2022/02/14 10:39:31;;;;;;;0.70;0.30;;;10.50;99.90;;;;;;4972617;28;20207;-69
2022/02/14 10:42:00;;;;;;;2.93;0.43;;;10.40;99.90;;;;;;4971662;28;20571;-73
2022/02/14 10:47:16;;;;;;;2.53;0.30;;;10.10;99.90;;;;;;4972021;28;20226;-74
2022/02/14 10:49:44;;;;;;;1.07;0.40;;;9.90;99.90;;;;;;4975736;28;20199;-75
2022/02/14 10:52:12;;;;;;;2.50;0.40;;;9.90;99.90;;;;;;4975669;28;20227;-75
2022/02/14 10:54:42;;;;;;;0.63;0.30;;;9.80;99.90;;;;;;4976139;28;20206;-75
2022/02/14 10:57:25;;;;;;;1.00;0.37;;;9.80;99.90;;;;;;4975942;28;20238;-75
2022/02/14 11:00:05;;;;;;;2.17;0.30;;;9.80;99.90;;;;;;4975561;28;20237;-74
2022/02/14 11:02:32;;;;;;;1.77;0.50;;;9.90;99.90;;;;;;4975568;28;20289;-75
2022/02/14 11:04:59;;;;;;;1.50;0.30;;;9.90;99.90;;;;;;4975650;28;20211;-76
2022/02/14 11:07:27;;;;;;;3.00;0.40;;;10.10;99.90;;;;;;4975865;28;20211;-76
2022/02/14 11:09:58;;;;;;;3.73;0.40;;;10.20;99.90;;;;;;4976209;28;20215;-71
2022/02/14 11:12:25;;;;;;;0.67;0.40;;;10.30;99.90;;;;;;4975247;28;20231;-75
2022/02/14 11:14:54;;;;;;;0.97;0.33;;;10.40;99.90;;;;;;4975614;28;20212;-73
2022/02/14 11:17:26;;;;;;;1.37;0.40;;;10.60;99.90;;;;;;4975841;28;20262;-72
2022/02/14 11:19:55;;;;;;;1.13;0.47;;;10.80;99.90;;;;;;4975378;28;20355;-73
2022/02/14 11:22:26;;;;;;;1.37;0.50;;;10.90;99.90;;;;;;4975489;28;20623;-74
2022/02/14 11:25:00;;;;;;;4.23;0.50;;;11.00;99.90;;;;;;4975888;28;20214;-71
2022/02/14 11:27:31;;;;;;;2.00;0.33;;;11.10;99.90;;;;;;4975547;28;20211;-73
2022/02/14 11:30:02;;;;;;;2.03;0.40;;;11.30;99.90;;;;;;4975283;28;20222;-73
2022/02/14 11:32:34;;;;;;;1.33;0.30;;;11.40;99.90;;;;;;4975105;28;20321;-67
2022/02/14 11:35:05;;;;;;;2.30;0.60;;;11.50;99.90;;;;;;4974588;28;20238;-69
2022/02/14 11:37:54;;;;;;;0.63;0.40;;;11.40;99.90;;;;;;4970893;28;20215;-69
2022/02/14 11:40:37;;;;;;;1.30;0.50;;;11.30;99.90;;;;;;4974714;28;20602;-68
2022/02/14 11:43:18;;;;;;;2.20;0.40;;;11.20;99.90;;;;;;4975152;28;20214;-68
2022/02/14 11:45:45;;;;;;;5.40;0.40;;;11.10;99.90;;;;;;4974617;28;20273;-69
2022/02/14 11:48:26;;;;;;;3.70;0.60;;;11.20;99.90;;;;;;4974821;28;20203;-70
2022/02/14 11:51:05;;;;;;;4.77;0.57;;;11.20;99.90;;;;;;4976215;28;20226;-69
2022/02/14 11:53:34;;;;;;;0.60;0.40;;;11.10;99.90;;;;;;4976421;28;20215;-72
2022/02/14 11:56:32;;;;;;;3.70;0.30;;;11.10;99.90;;;;;;4976330;28;20218;-72
2022/02/14 11:59:07;;;;;;;2.17;0.40;;;11.20;99.90;;;;;;4976200;28;20207;-72
2022/02/14 12:01:36;;;;;;;3.40;0.50;;;11.30;99.90;;;;;;4976408;28;20245;-71
2022/02/14 12:04:46;;;;;;;5.37;0.77;;;11.30;99.90;;;;;;4975613;28;20211;-72
2022/02/14 12:07:32;;;;;;;5.30;0.70;;;11.30;99.90;;;;;;4975237;28;20713;-72
2022/02/14 12:10:24;;;;;;;1.53;0.50;;;11.30;99.90;;;;;;4975814;28;20297;-72
2022/02/14 12:13:10;;;;;;;4.07;0.80;;;11.30;99.90;;;;;;4957698;28;20222;-72
2022/02/14 12:21:15;;;;;;;4.30;0.57;;;11.10;99.90;;;;;;4975850;28;20801;-72
2022/02/14 12:23:44;;;;;;;2.37;0.60;;;11.10;99.90;;;;;;4976309;28;20212;-72
2022/02/14 12:26:13;;;;;;;2.93;0.67;;;11.20;99.90;;;;;;4976003;28;20245;-73
2022/02/14 12:28:43;;;;;;;2.70;0.70;;;11.30;99.90;;;;;;4975899;28;20214;-73
2022/02/14 12:31:11;;;;;;;4.17;0.80;;;11.20;99.90;;;;;;4975617;28;20579;-73
2022/02/14 12:33:38;;;;;;;4.53;0.77;;;11.30;99.90;;;;;;4975539;28;20562;-73
2022/02/14 12:36:07;;;;;;;7.00;0.87;;;11.30;99.90;;;;;;4975425;28;20219;-71
2022/02/14 12:38:35;;;;;;;3.43;0.60;;;11.20;99.90;;;;;;4975521;28;20561;-73
2022/02/14 12:41:05;;;;;;;1.57;0.60;;;11.20;99.90;;;;;;4975445;28;20235;-72
2022/02/14 12:43:36;;;;;;;3.10;0.60;;;11.20;99.90;;;;;;4975866;28;20323;-73
2022/02/14 12:46:06;;;;;;;5.20;1.37;;;11.30;99.90;;;;;;4975598;28;20230;-72
2022/02/14 12:48:34;;;;;;;3.87;0.90;;;11.20;99.90;;;;;;4969519;28;20258;-71
2022/02/14 12:51:02;;;;;;;1.40;0.60;;;11.20;99.90;;;;;;4975419;28;20314;-72
2022/02/14 12:53:29;;;;;;;4.43;0.73;;;11.00;99.90;;;;;;4975378;28;20211;-72
2022/02/14 12:56:11;;;;;;;2.60;0.80;;;11.00;99.90;;;;;;4975154;28;20216;-71
2022/02/14 12:58:46;;;;;;;2.03;0.70;;;11.10;99.90;;;;;;4974979;28;20206;-73
2022/02/14 13:01:15;;;;;;;3.40;0.87;;;11.30;99.90;;;;;;4974581;28;20223;-75
2022/02/14 13:03:43;;;;;;;3.13;1.73;;;11.40;99.90;;;;;;4973978;28;20206;-73
2022/02/14 13:06:09;;;;;;;2.03;0.50;;;11.40;99.90;;;;;;4974798;28;20235;-71